Time;durP1;ratioP1;P1;durP2;ratioP2;P2;SDS_P1;SDS_P2;PMS_P1;PMS_P2;Temp;Humidity;BMP_temperature;BMP_pressure;BME280_temperature;BME280_humidity;BME280_pressure;Samples;Min_cycle;Max_cycle;Signal;HPM_P1;HPM_P2
2022/07/22 00:02:25;;;;;;;27.77;23.48;;;18.20;99.90;;;;;;4994818;28;20549;-83
2022/07/22 00:04:51;;;;;;;27.40;21.08;;;18.10;99.90;;;;;;5012290;28;20033;-81
2022/07/22 00:07:16;;;;;;;27.70;24.70;;;18.10;99.90;;;;;;5011851;28;20026;-82
2022/07/22 00:09:42;;;;;;;35.47;21.67;;;18.10;99.90;;;;;;4994230;28;20105;-82
2022/07/22 00:12:08;;;;;;;31.83;21.13;;;18.00;99.90;;;;;;4994314;28;20355;-81
2022/07/22 00:14:34;;;;;;;29.73;20.17;;;18.00;99.90;;;;;;5011977;28;20029;-83
2022/07/22 00:17:00;;;;;;;119.68;26.52;;;18.10;99.90;;;;;;5011759;28;20407;-82
2022/07/22 00:19:26;;;;;;;61.50;24.73;;;18.10;99.90;;;;;;5011807;28;20061;-80
2022/07/22 00:21:52;;;;;;;37.60;24.33;;;18.00;99.90;;;;;;5011615;28;20397;-80
2022/07/22 00:24:18;;;;;;;52.25;23.27;;;18.00;99.90;;;;;;5011429;28;20036;-81
2022/07/22 00:26:43;;;;;;;38.08;20.75;;;17.90;99.90;;;;;;5011670;28;20385;-82
2022/07/22 00:29:09;;;;;;;26.25;20.27;;;17.80;99.90;;;;;;5011410;28;20026;-82
2022/07/22 00:31:35;;;;;;;35.33;22.35;;;17.70;99.90;;;;;;4994030;28;20510;-83
2022/07/22 00:34:01;;;;;;;45.78;21.27;;;17.60;99.90;;;;;;4993716;28;20529;-83
2022/07/22 00:36:28;;;;;;;68.97;24.13;;;17.60;99.90;;;;;;5011588;28;20362;-84
2022/07/22 00:38:54;;;;;;;53.15;24.25;;;17.60;99.90;;;;;;4993807;28;20255;-82
2022/07/22 00:41:20;;;;;;;67.40;23.38;;;17.60;99.90;;;;;;5011501;28;20023;-82
2022/07/22 00:43:59;;;;;;;92.70;22.67;;;17.60;99.90;;;;;;5011438;28;20025;-82
2022/07/22 00:46:26;;;;;;;46.80;19.05;;;17.60;99.90;;;;;;5011401;28;20434;-83
2022/07/22 00:48:54;;;;;;;47.25;21.38;;;17.50;99.90;;;;;;4993433;28;20026;-83
2022/07/22 00:51:21;;;;;;;228.25;25.73;;;17.40;99.90;;;;;;5010466;28;20033;-82
2022/07/22 00:53:47;;;;;;;205.27;23.80;;;17.40;99.90;;;;;;5011145;28;20014;-81
2022/07/22 00:56:15;;;;;;;109.35;22.08;;;17.30;99.90;;;;;;4993278;28;20022;-83
2022/07/22 00:58:42;;;;;;;120.43;21.33;;;17.40;99.90;;;;;;4993575;28;20030;-84
2022/07/22 01:01:07;;;;;;;32.72;19.00;;;17.40;99.90;;;;;;5010993;28;20080;-81
2022/07/22 01:03:34;;;;;;;81.75;23.23;;;17.40;99.90;;;;;;4993416;28;20030;-83
2022/07/22 01:06:00;;;;;;;134.93;24.92;;;17.40;99.90;;;;;;5011109;28;20437;-82
2022/07/22 01:08:26;;;;;;;62.85;20.35;;;17.40;99.90;;;;;;5010584;28;20061;-83
2022/07/22 01:10:51;;;;;;;89.88;22.33;;;17.50;99.90;;;;;;5011091;28;20103;-81
2022/07/22 01:13:17;;;;;;;28.63;20.23;;;17.40;99.90;;;;;;4993281;28;20061;-80
2022/07/22 01:15:43;;;;;;;54.70;20.00;;;17.50;99.90;;;;;;5011076;28;20608;-82
2022/07/22 01:18:08;;;;;;;75.38;21.40;;;17.50;99.90;;;;;;5010681;28;20385;-82
2022/07/22 01:20:35;;;;;;;119.53;22.52;;;17.50;99.90;;;;;;5010904;28;20153;-82
2022/07/22 01:23:01;;;;;;;46.17;23.38;;;17.50;99.90;;;;;;5010697;28;20467;-81
2022/07/22 01:25:26;;;;;;;104.47;24.58;;;17.50;99.90;;;;;;5010560;28;20108;-80
2022/07/22 01:27:53;;;;;;;148.00;25.38;;;17.60;99.90;;;;;;5010637;28;20037;-81
2022/07/22 01:30:18;;;;;;;125.97;23.85;;;17.60;99.90;;;;;;5010998;28;20010;-81
2022/07/22 01:32:44;;;;;;;44.72;20.52;;;17.60;99.90;;;;;;5010687;28;20133;-83
2022/07/22 01:35:10;;;;;;;85.85;23.83;;;17.60;99.90;;;;;;5010675;28;20109;-84
2022/07/22 01:37:36;;;;;;;113.28;23.95;;;17.70;99.90;;;;;;5010874;28;20034;-82
2022/07/22 01:40:02;;;;;;;87.07;20.00;;;17.70;99.90;;;;;;5010544;28;20509;-82
2022/07/22 01:42:28;;;;;;;49.15;18.40;;;17.70;99.90;;;;;;4993049;28;20030;-81
2022/07/22 01:44:53;;;;;;;125.70;22.90;;;17.70;99.90;;;;;;5010531;28;20048;-84
2022/07/22 01:47:19;;;;;;;44.67;19.85;;;17.60;99.90;;;;;;5010453;28;20377;-84
2022/07/22 01:49:45;;;;;;;54.47;20.35;;;17.60;99.90;;;;;;5010540;28;20080;-81
2022/07/22 01:52:10;;;;;;;73.95;26.38;;;17.60;99.90;;;;;;5010559;28;20052;-83
2022/07/22 01:54:37;;;;;;;28.08;20.48;;;17.60;99.90;;;;;;4992954;28;20052;-84
2022/07/22 01:57:03;;;;;;;64.25;21.38;;;17.60;99.90;;;;;;5010563;28;20112;-83
2022/07/22 01:59:29;;;;;;;32.28;22.02;;;17.70;99.90;;;;;;5010688;28;20100;-80
2022/07/22 02:01:55;;;;;;;60.72;25.55;;;17.80;99.90;;;;;;5011564;28;20097;-82
2022/07/22 02:04:21;;;;;;;48.05;22.77;;;17.80;99.90;;;;;;4996619;28;20469;-82
2022/07/22 02:06:46;;;;;;;53.50;21.50;;;17.70;99.90;;;;;;5014256;28;20056;-82
2022/07/22 02:09:13;;;;;;;30.02;22.65;;;17.70;99.90;;;;;;4996187;28;20022;-84
2022/07/22 02:11:39;;;;;;;112.78;26.23;;;17.70;99.90;;;;;;5014092;28;20428;-82
2022/07/22 02:14:05;;;;;;;55.35;25.42;;;17.70;99.90;;;;;;4996332;28;20022;-82
2022/07/22 02:16:30;;;;;;;45.35;23.33;;;17.70;99.90;;;;;;5014042;28;20088;-83
2022/07/22 02:18:56;;;;;;;24.08;21.65;;;17.70;99.90;;;;;;5013976;28;20065;-80
2022/07/22 02:21:22;;;;;;;31.10;22.70;;;17.70;99.90;;;;;;5014152;28;20022;-84
2022/07/22 02:23:47;;;;;;;25.38;21.48;;;17.70;99.90;;;;;;5013845;28;20389;-84
2022/07/22 02:26:13;;;;;;;24.63;21.63;;;17.80;99.90;;;;;;5013602;28;20038;-81
2022/07/22 02:28:39;;;;;;;26.70;22.80;;;17.80;99.90;;;;;;5013504;28;20401;-83
2022/07/22 02:31:05;;;;;;;26.40;22.88;;;17.90;99.90;;;;;;5013834;28;20046;-83
2022/07/22 02:33:30;;;;;;;26.50;23.45;;;17.90;99.90;;;;;;5013513;28;20038;-80
2022/07/22 02:35:56;;;;;;;31.75;25.10;;;17.90;99.90;;;;;;5013768;28;20065;-83
2022/07/22 02:38:22;;;;;;;30.83;23.80;;;17.90;99.90;;;;;;4996257;28;20413;-82
2022/07/22 02:40:48;;;;;;;38.13;21.73;;;18.00;99.90;;;;;;5013588;28;20026;-81
2022/07/22 02:43:13;;;;;;;32.25;22.48;;;17.90;99.90;;;;;;5013433;28;20084;-83
2022/07/22 02:45:39;;;;;;;33.63;24.23;;;17.90;99.90;;;;;;5013487;28;20022;-84
2022/07/22 02:48:05;;;;;;;54.22;27.88;;;18.00;99.90;;;;;;5013436;28;20022;-82
2022/07/22 02:50:32;;;;;;;97.32;33.70;;;18.00;99.90;;;;;;5013522;28;20021;-81
2022/07/22 02:52:58;;;;;;;57.72;31.52;;;18.00;99.90;;;;;;5013406;28;20420;-84
2022/07/22 02:55:24;;;;;;;60.28;28.00;;;18.00;99.90;;;;;;5013189;28;20323;-83
2022/07/22 02:57:50;;;;;;;71.88;31.50;;;18.10;99.90;;;;;;5013226;28;20026;-82
2022/07/22 03:00:16;;;;;;;54.10;29.48;;;18.10;99.90;;;;;;5013337;28;20036;-82
2022/07/22 03:02:42;;;;;;;66.40;29.88;;;18.10;99.90;;;;;;5013289;28;20057;-84
2022/07/22 03:05:08;;;;;;;73.93;30.88;;;18.20;99.90;;;;;;5013130;28;20563;-83
2022/07/22 03:07:34;;;;;;;119.32;34.72;;;18.20;99.90;;;;;;5013027;28;20128;-81
2022/07/22 03:10:00;;;;;;;119.57;33.30;;;18.20;99.90;;;;;;5013170;28;20097;-84
2022/07/22 03:12:26;;;;;;;159.30;33.78;;;18.20;99.90;;;;;;5012603;28;20018;-83
2022/07/22 03:14:52;;;;;;;59.40;30.60;;;18.10;99.90;;;;;;5011960;28;20032;-81
2022/07/22 03:17:18;;;;;;;74.90;29.85;;;18.10;99.90;;;;;;5013003;28;20124;-82
2022/07/22 03:19:43;;;;;;;42.80;28.23;;;18.10;99.90;;;;;;4995264;28;20112;-84
2022/07/22 03:22:10;;;;;;;103.25;32.28;;;18.20;99.90;;;;;;5013108;28;20030;-82
2022/07/22 03:24:36;;;;;;;48.28;30.20;;;18.20;99.90;;;;;;5012760;28;20485;-84
2022/07/22 03:27:01;;;;;;;53.10;27.92;;;18.20;99.90;;;;;;5012544;28;20034;-81
2022/07/22 03:29:27;;;;;;;34.25;26.77;;;18.20;99.90;;;;;;5012689;28;20455;-82
2022/07/22 03:31:53;;;;;;;37.33;26.05;;;18.20;99.90;;;;;;5012238;28;20014;-83
2022/07/22 03:34:18;;;;;;;106.30;29.35;;;18.20;99.90;;;;;;4995072;28;20501;-82
2022/07/22 03:36:44;;;;;;;101.43;29.13;;;18.20;99.90;;;;;;5012423;28;20022;-83
2022/07/22 03:39:10;;;;;;;67.63;29.27;;;18.10;99.90;;;;;;5012632;28;20037;-82
2022/07/22 03:41:35;;;;;;;81.97;30.35;;;18.00;99.90;;;;;;5012044;28;20034;-82
2022/07/22 03:44:01;;;;;;;107.70;33.85;;;18.00;99.90;;;;;;5012454;28;20026;-82
2022/07/22 03:46:26;;;;;;;41.92;28.92;;;18.00;99.90;;;;;;5012126;28;20026;-84
2022/07/22 03:48:52;;;;;;;37.40;28.10;;;18.00;99.90;;;;;;5012138;28;20036;-83
2022/07/22 03:51:18;;;;;;;33.85;25.70;;;18.10;99.90;;;;;;5012209;28;20022;-82
2022/07/22 03:53:43;;;;;;;48.08;26.17;;;18.10;99.90;;;;;;5012204;28;20363;-84
2022/07/22 03:56:09;;;;;;;36.13;27.70;;;18.10;99.90;;;;;;5012162;28;20105;-82
2022/07/22 03:58:35;;;;;;;39.45;27.27;;;18.20;99.90;;;;;;5011839;28;20026;-81
2022/07/22 04:01:00;;;;;;;37.53;29.77;;;18.20;99.90;;;;;;4994390;28;20503;-83
2022/07/22 04:03:26;;;;;;;46.00;30.20;;;18.10;99.90;;;;;;5013645;28;20279;-84
2022/07/22 04:05:55;;;;;;;41.55;27.88;;;18.20;99.90;;;;;;4997880;28;20030;-81
2022/07/22 04:08:20;;;;;;;45.13;30.33;;;18.20;99.90;;;;;;5013506;28;20033;-82
2022/07/22 04:10:46;;;;;;;38.30;28.08;;;18.20;99.90;;;;;;5009431;28;20295;-84
2022/07/22 04:13:13;;;;;;;41.75;27.67;;;18.30;99.90;;;;;;5016793;28;20018;-84
2022/07/22 04:15:40;;;;;;;51.03;27.23;;;18.30;99.90;;;;;;5005376;28;20030;-82
2022/07/22 04:18:05;;;;;;;43.10;29.23;;;18.30;99.90;;;;;;5013617;28;20030;-82
2022/07/22 04:20:31;;;;;;;35.03;26.10;;;18.40;99.90;;;;;;5013938;28;20042;-82
2022/07/22 04:22:57;;;;;;;28.95;25.10;;;18.30;99.90;;;;;;4995911;28;20025;-81
2022/07/22 04:25:23;;;;;;;29.27;23.80;;;18.30;99.90;;;;;;4995536;28;20044;-82
2022/07/22 04:27:50;;;;;;;27.52;22.75;;;18.20;99.90;;;;;;5012776;28;20026;-82
2022/07/22 04:30:16;;;;;;;33.88;23.52;;;18.20;99.90;;;;;;5013644;28;20105;-82
2022/07/22 04:32:42;;;;;;;36.05;24.98;;;18.20;99.90;;;;;;5013371;28;20736;-82
2022/07/22 04:35:08;;;;;;;28.15;23.92;;;18.20;99.90;;;;;;5013174;28;20224;-84
2022/07/22 04:37:33;;;;;;;34.25;26.27;;;18.20;99.90;;;;;;4995564;28;20040;-84
2022/07/22 04:40:00;;;;;;;33.38;25.63;;;18.20;99.90;;;;;;5013011;28;20026;-84
2022/07/22 04:42:28;;;;;;;30.75;22.67;;;18.20;99.90;;;;;;4995274;28;20026;-84
2022/07/22 04:44:54;;;;;;;26.30;23.27;;;18.20;99.90;;;;;;5013493;28;20594;-81
2022/07/22 04:47:20;;;;;;;32.67;22.88;;;18.30;99.90;;;;;;4995906;28;20033;-81
2022/07/22 04:49:45;;;;;;;30.58;20.73;;;18.40;99.90;;;;;;4996033;28;20520;-82
2022/07/22 04:52:11;;;;;;;29.83;22.77;;;18.40;99.90;;;;;;5013835;28;20026;-83
2022/07/22 04:54:37;;;;;;;26.90;22.77;;;18.50;99.90;;;;;;5013644;28;20026;-81
2022/07/22 04:57:03;;;;;;;23.95;21.35;;;18.50;99.90;;;;;;5013702;28;20029;-81
2022/07/22 04:59:28;;;;;;;26.35;21.52;;;18.50;99.90;;;;;;5013635;28;20057;-81
2022/07/22 05:01:54;;;;;;;31.45;23.23;;;18.50;99.90;;;;;;5013905;28;20109;-81
2022/07/22 05:04:20;;;;;;;49.10;24.15;;;18.60;99.90;;;;;;4996062;28;20034;-82
2022/07/22 05:06:45;;;;;;;31.30;24.52;;;18.60;99.90;;;;;;5013148;28;20473;-84
2022/07/22 05:09:11;;;;;;;26.08;23.05;;;18.70;99.90;;;;;;5013229;28;20523;-82
2022/07/22 05:11:37;;;;;;;26.02;22.65;;;18.80;99.90;;;;;;5013420;28;20385;-83
2022/07/22 05:14:02;;;;;;;27.95;23.10;;;18.90;99.90;;;;;;5013022;28;20022;-79
2022/07/22 05:16:28;;;;;;;39.03;21.20;;;19.00;99.90;;;;;;4995873;28;20045;-81
2022/07/22 05:18:54;;;;;;;74.75;24.20;;;19.10;99.90;;;;;;5013713;28;20489;-82
2022/07/22 05:21:19;;;;;;;27.08;19.17;;;19.10;99.90;;;;;;4994122;28;20098;-81
2022/07/22 05:23:45;;;;;;;23.65;19.67;;;19.20;99.90;;;;;;4992238;28;20033;-83
2022/07/22 05:26:11;;;;;;;20.75;18.27;;;19.20;99.90;;;;;;4975687;28;20030;-80
2022/07/22 05:28:36;;;;;;;26.85;19.02;;;19.40;99.90;;;;;;5009212;28;20054;-82
2022/07/22 05:31:02;;;;;;;30.48;18.73;;;19.50;99.90;;;;;;5003785;28;20025;-81
2022/07/22 05:33:28;;;;;;;25.92;18.27;;;19.60;99.90;;;;;;5002231;28;20089;-84
2022/07/22 05:35:53;;;;;;;21.83;17.42;;;19.60;99.90;;;;;;4992214;28;20057;-83
2022/07/22 05:38:19;;;;;;;20.17;17.20;;;19.70;99.90;;;;;;5014828;28;20026;-80
2022/07/22 05:40:45;;;;;;;23.60;18.73;;;19.70;99.90;;;;;;5015109;28;20107;-83
2022/07/22 05:43:10;;;;;;;19.58;17.25;;;19.80;99.90;;;;;;5013600;28;20029;-82
2022/07/22 05:45:36;;;;;;;18.05;16.25;;;20.00;99.90;;;;;;5002026;28;20026;-81
2022/07/22 05:48:02;;;;;;;19.65;17.55;;;20.10;99.90;;;;;;5014181;28;20030;-82
2022/07/22 05:50:28;;;;;;;18.10;16.27;;;20.20;99.90;;;;;;5009047;28;20405;-81
2022/07/22 05:52:54;;;;;;;20.50;17.25;;;20.30;99.90;;;;;;5006661;28;20108;-83
2022/07/22 05:55:19;;;;;;;19.15;16.20;;;20.30;99.90;;;;;;4997032;28;20433;-82
2022/07/22 05:57:45;;;;;;;19.00;17.00;;;20.40;99.90;;;;;;5014370;28;20381;-81
2022/07/22 06:00:11;;;;;;;19.13;17.23;;;20.30;99.90;;;;;;5014910;28;20376;-82
2022/07/22 06:02:37;;;;;;;21.67;17.15;;;20.30;99.90;;;;;;4996867;28;20596;-82
2022/07/22 06:05:03;;;;;;;19.92;17.83;;;20.40;99.90;;;;;;4995831;28;20129;-82
2022/07/22 06:07:28;;;;;;;19.77;17.77;;;20.40;99.90;;;;;;5014068;28;20030;-82
2022/07/22 06:09:54;;;;;;;19.48;17.48;;;20.50;99.90;;;;;;5014372;28;20029;-84
2022/07/22 06:12:20;;;;;;;20.58;18.40;;;20.60;99.90;;;;;;4995806;28;20271;-83
2022/07/22 06:14:46;;;;;;;20.52;18.33;;;20.70;99.90;;;;;;4996538;28;20018;-83
2022/07/22 06:17:12;;;;;;;19.00;17.10;;;20.70;99.90;;;;;;5014183;28;20022;-82
2022/07/22 06:19:38;;;;;;;20.48;18.48;;;20.70;99.90;;;;;;4996004;28;20637;-82
2022/07/22 06:22:04;;;;;;;24.30;19.15;;;20.80;99.90;;;;;;4996393;28;20029;-82
2022/07/22 06:24:30;;;;;;;21.23;18.58;;;20.80;99.90;;;;;;4995930;28;20443;-82
2022/07/22 06:26:55;;;;;;;21.35;17.92;;;20.90;99.90;;;;;;5014032;28;20105;-82
2022/07/22 06:29:21;;;;;;;19.92;17.92;;;20.90;99.90;;;;;;5014046;28;20026;-82
2022/07/22 06:31:47;;;;;;;20.42;18.27;;;21.00;99.90;;;;;;4996258;28;20036;-84
2022/07/22 06:34:13;;;;;;;20.85;18.85;;;21.00;99.90;;;;;;5013348;28;20038;-81
2022/07/22 06:36:38;;;;;;;20.50;18.42;;;21.10;99.90;;;;;;5013597;28;20022;-81
2022/07/22 06:39:04;;;;;;;19.38;17.45;;;21.00;99.90;;;;;;5013929;28;20026;-81
2022/07/22 06:41:30;;;;;;;25.98;18.73;;;21.10;99.90;;;;;;4996024;28;20025;-84
2022/07/22 06:43:56;;;;;;;22.70;19.05;;;21.20;99.90;;;;;;5013167;28;20021;-82
2022/07/22 06:46:21;;;;;;;19.25;17.48;;;21.30;99.90;;;;;;5013445;28;20069;-81
2022/07/22 06:48:47;;;;;;;22.38;20.17;;;21.40;99.90;;;;;;5012755;28;20041;-84
2022/07/22 06:51:13;;;;;;;21.17;19.10;;;21.50;99.90;;;;;;5012914;28;20470;-83
2022/07/22 06:53:38;;;;;;;23.80;21.50;;;21.60;99.90;;;;;;5013395;28;20026;-82
2022/07/22 06:56:05;;;;;;;21.42;19.35;;;21.70;99.90;;;;;;5013638;28;20022;-84
2022/07/22 06:58:30;;;;;;;25.08;19.48;;;21.70;99.90;;;;;;5013617;28;20033;-83
2022/07/22 07:00:56;;;;;;;23.67;21.02;;;21.70;99.90;;;;;;5012847;28;20022;-82
2022/07/22 07:03:25;;;;;;;26.70;20.98;;;21.70;99.90;;;;;;5012953;28;20096;-82
2022/07/22 07:05:51;;;;;;;25.70;22.17;;;21.80;99.90;;;;;;4995372;28;20429;-82
2022/07/22 07:08:16;;;;;;;23.00;20.60;;;21.80;99.90;;;;;;4995449;28;20393;-83
2022/07/22 07:10:42;;;;;;;21.83;19.52;;;21.90;99.90;;;;;;5012897;28;20032;-82
2022/07/22 07:13:08;;;;;;;25.67;20.20;;;22.00;99.90;;;;;;5013271;28;20101;-82
2022/07/22 07:15:34;;;;;;;24.80;22.05;;;22.10;99.90;;;;;;5013148;28;20032;-83
2022/07/22 07:17:59;;;;;;;24.42;22.00;;;22.00;99.90;;;;;;5012836;28;20511;-81
2022/07/22 07:20:25;;;;;;;24.48;20.65;;;22.20;99.90;;;;;;5012551;28;20530;-82
2022/07/22 07:22:51;;;;;;;22.73;19.88;;;22.30;99.90;;;;;;5012722;28;20086;-82
2022/07/22 07:25:17;;;;;;;22.02;18.63;;;22.40;99.90;;;;;;5012637;28;20036;-84
2022/07/22 07:27:43;;;;;;;20.27;16.50;;;22.60;99.90;;;;;;5012509;28;20018;-82
2022/07/22 07:30:09;;;;;;;19.90;15.88;;;22.60;99.90;;;;;;5012527;28;20077;-83
2022/07/22 07:32:36;;;;;;;21.58;16.08;;;22.60;99.90;;;;;;4995398;28;20029;-84
2022/07/22 07:35:03;;;;;;;15.65;13.80;;;22.70;99.90;;;;;;5012112;28;20049;-84
2022/07/22 07:37:29;;;;;;;24.55;14.73;;;22.90;99.90;;;;;;5012741;28;20425;-83
2022/07/22 07:39:55;;;;;;;19.00;16.70;;;23.10;99.90;;;;;;5014640;28;20080;-84
2022/07/22 07:42:20;;;;;;;19.33;13.65;;;23.20;99.90;;;;;;5014998;28;20102;-83
2022/07/22 07:44:46;;;;;;;20.48;13.90;;;23.40;99.90;;;;;;5014596;28;20022;-84
2022/07/22 07:47:17;;;;;;;18.60;13.82;;;23.60;99.90;;;;;;5012274;28;20033;-81
2022/07/22 07:49:46;;;;;;;18.48;15.15;;;23.50;99.90;;;;;;5011396;28;20449;-84
2022/07/22 07:52:14;;;;;;;27.30;15.27;;;23.50;99.90;;;;;;5011827;28;20022;-82
2022/07/22 07:54:41;;;;;;;17.70;13.10;;;23.80;99.90;;;;;;5012375;28;20487;-83
2022/07/22 07:57:08;;;;;;;17.15;14.18;;;23.90;99.90;;;;;;5012319;28;20088;-83
2022/07/22 07:59:34;;;;;;;16.77;13.00;;;23.80;99.90;;;;;;4994074;28;20072;-84
2022/07/22 08:02:01;;;;;;;22.83;14.27;;;23.70;99.90;;;;;;5011974;28;20516;-83
2022/07/22 08:04:27;;;;;;;19.17;15.35;;;23.60;99.90;;;;;;5011950;28;20408;-81
2022/07/22 08:06:52;;;;;;;18.42;14.38;;;23.90;99.90;;;;;;5011939;28;20025;-83
2022/07/22 08:09:18;;;;;;;19.50;14.55;;;23.90;99.90;;;;;;5012912;28;20021;-83
2022/07/22 08:11:44;;;;;;;18.58;14.25;;;24.00;99.90;;;;;;4996359;28;20105;-81
2022/07/22 08:14:09;;;;;;;17.13;14.32;;;24.00;99.90;;;;;;5013190;28;20017;-83
2022/07/22 08:16:35;;;;;;;22.00;17.42;;;24.10;99.90;;;;;;5013184;28;20025;-84
2022/07/22 08:19:01;;;;;;;22.45;14.20;;;24.20;99.90;;;;;;5013102;28;20058;-84
2022/07/22 08:21:29;;;;;;;14.50;12.88;;;24.40;99.90;;;;;;5013933;28;20061;-84
2022/07/22 08:23:54;;;;;;;23.55;13.18;;;24.20;99.90;;;;;;5014024;28;20483;-82
2022/07/22 08:26:21;;;;;;;17.42;13.63;;;24.50;99.90;;;;;;5012918;28;20061;-83
2022/07/22 08:28:47;;;;;;;17.23;13.68;;;24.70;99.90;;;;;;4996257;28;20025;-83
2022/07/22 08:31:13;;;;;;;18.33;14.25;;;24.60;99.90;;;;;;5012344;28;20033;-81
2022/07/22 08:33:38;;;;;;;15.13;13.35;;;24.70;99.90;;;;;;5010030;28;20057;-83
2022/07/22 08:36:04;;;;;;;16.08;14.32;;;24.70;99.90;;;;;;5013756;28;20033;-84
2022/07/22 08:38:31;;;;;;;16.77;12.40;;;24.80;99.90;;;;;;4994280;28;20461;-81
2022/07/22 08:40:57;;;;;;;20.00;13.35;;;24.90;99.90;;;;;;5013260;28;20101;-81
2022/07/22 08:43:26;;;;;;;19.17;15.25;;;25.10;99.90;;;;;;4986325;28;20042;-84
2022/07/22 08:45:52;;;;;;;13.30;11.88;;;25.10;99.90;;;;;;4970864;28;20362;-82
2022/07/22 08:48:18;;;;;;;18.88;14.73;;;25.20;99.90;;;;;;4990278;28;20026;-81
2022/07/22 08:50:44;;;;;;;26.67;14.90;;;25.30;99.90;;;;;;4986335;28;20036;-81
2022/07/22 08:53:11;;;;;;;14.70;13.10;;;25.10;99.90;;;;;;4988530;28;20015;-81
2022/07/22 08:55:42;;;;;;;18.98;15.40;;;25.30;99.90;;;;;;4991082;28;20077;-83
2022/07/22 08:58:08;;;;;;;18.65;14.23;;;25.40;99.90;;;;;;4987266;28;20392;-83
2022/07/22 09:00:34;;;;;;;17.60;11.98;;;25.40;99.90;;;;;;4989544;28;20092;-83
2022/07/22 09:03:00;;;;;;;15.80;14.10;;;25.60;99.90;;;;;;4971722;28;20039;-84
2022/07/22 09:05:33;;;;;;;14.15;10.75;;;25.80;99.90;;;;;;4989576;28;20081;-82
2022/07/22 09:07:59;;;;;;;12.38;11.07;;;25.90;99.90;;;;;;4985789;28;20030;-81
2022/07/22 09:10:31;;;;;;;15.52;11.70;;;25.90;99.90;;;;;;4985537;28;20026;-83
2022/07/22 09:13:04;;;;;;;17.35;13.82;;;26.00;99.90;;;;;;4986490;28;20452;-83
2022/07/22 09:15:37;;;;;;;16.55;14.32;;;26.30;99.90;;;;;;4986980;28;20113;-84
2022/07/22 09:18:05;;;;;;;23.58;15.35;;;26.50;99.90;;;;;;4988749;28;20049;-83
2022/07/22 09:20:31;;;;;;;20.98;15.55;;;26.30;99.90;;;;;;4987703;28;20027;-83
2022/07/22 09:22:57;;;;;;;16.05;13.30;;;26.30;99.90;;;;;;4988232;28;20145;-82
2022/07/22 09:25:30;;;;;;;15.57;12.40;;;26.60;99.90;;;;;;4990420;28;20105;-81
2022/07/22 09:28:08;;;;;;;;;;;26.80;99.90;;;;;;4969423;28;20042;-82
2022/07/22 09:30:36;;;;;;;13.48;11.80;;;27.00;99.90;;;;;;4984724;28;20721;-83
2022/07/22 09:33:03;;;;;;;12.88;10.40;;;27.20;99.90;;;;;;4985163;28;20037;-84
2022/07/22 09:35:29;;;;;;;12.32;10.98;;;27.10;99.90;;;;;;4997907;28;20046;-83
2022/07/22 09:37:56;;;;;;;11.88;9.00;;;27.40;99.90;;;;;;4992233;28;20038;-85
2022/07/22 09:40:25;;;;;;;13.35;9.77;;;27.50;99.90;;;;;;4994682;28;20030;-83
2022/07/22 09:42:53;;;;;;;12.82;10.18;;;27.40;99.90;;;;;;4968012;28;20160;-84
2022/07/22 09:45:21;;;;;;;12.23;9.80;;;27.60;99.90;;;;;;4986942;28;20049;-82
2022/07/22 09:47:48;;;;;;;11.48;10.35;;;27.70;99.90;;;;;;4985540;28;20168;-83
2022/07/22 09:50:32;;;;;;;12.20;10.75;;;27.70;99.90;;;;;;4992739;28;20113;-81
2022/07/22 09:52:59;;;;;;;13.15;9.95;;;28.00;99.90;;;;;;4988840;28;20018;-84
2022/07/22 09:55:27;;;;;;;12.55;10.40;;;28.10;99.90;;;;;;4987642;28;20042;-85
2022/07/22 09:57:54;;;;;;;13.35;9.52;;;28.10;99.90;;;;;;4985807;28;20778;-84
2022/07/22 10:00:23;;;;;;;13.88;8.75;;;27.90;99.60;;;;;;4989586;28;20034;-83
2022/07/22 10:02:55;;;;;;;14.15;9.32;;;27.90;99.90;;;;;;4973410;28;20037;-83
2022/07/22 10:05:26;;;;;;;10.90;9.60;;;27.80;99.90;;;;;;4996957;28;20028;-83
2022/07/22 10:07:52;;;;;;;14.80;10.30;;;27.90;99.20;;;;;;5010189;28;20501;-84
2022/07/22 10:10:22;;;;;;;18.38;10.65;;;27.80;99.80;;;;;;5010602;28;20318;-82
2022/07/22 10:12:50;;;;;;;17.15;10.13;;;27.90;98.80;;;;;;4993351;28;20026;-83
2022/07/22 10:15:16;;;;;;;14.35;9.88;;;28.00;98.30;;;;;;5010913;28;20080;-82
2022/07/22 10:17:48;;;;;;;12.45;11.15;;;28.40;99.70;;;;;;4992779;28;20030;-82
2022/07/22 10:20:20;;;;;;;10.23;9.23;;;28.60;99.80;;;;;;5010604;28;20038;-84
2022/07/22 10:22:51;;;;;;;13.35;9.52;;;28.80;99.30;;;;;;5012024;28;20026;-84
2022/07/22 10:25:18;;;;;;;15.20;10.23;;;29.20;99.10;;;;;;4996853;28;20492;-83
2022/07/22 10:27:56;;;;;;;17.27;10.43;;;29.10;98.60;;;;;;5013542;28;20448;-84
2022/07/22 10:30:24;;;;;;;14.40;11.85;;;29.10;97.60;;;;;;5014482;28;20031;-84
2022/07/22 10:33:02;;;;;;;15.20;10.57;;;28.90;98.40;;;;;;5013972;28;20384;-82
2022/07/22 10:35:28;;;;;;;12.43;10.68;;;29.00;98.30;;;;;;4999408;28;20540;-84
2022/07/22 10:37:56;;;;;;;12.90;10.70;;;28.60;98.00;;;;;;5024976;28;20025;-82
2022/07/22 10:40:28;;;;;;;11.88;9.82;;;29.10;98.60;;;;;;5026001;28;20053;-82
2022/07/22 10:43:07;;;;;;;13.77;11.00;;;29.40;97.90;;;;;;5026712;28;20014;-83
2022/07/22 10:45:39;;;;;;;14.00;12.00;;;29.60;98.50;;;;;;5012486;28;20037;-84
2022/07/22 10:48:10;;;;;;;12.10;10.93;;;29.40;97.00;;;;;;5013363;28;20169;-82
2022/07/22 10:50:39;;;;;;;16.48;12.10;;;29.50;97.60;;;;;;5028209;28;20022;-82
2022/07/22 10:53:07;;;;;;;12.95;11.00;;;29.20;97.70;;;;;;5011856;28;20397;-82
2022/07/22 10:55:35;;;;;;;13.70;9.82;;;29.70;98.10;;;;;;4991003;28;20493;-83
2022/07/22 10:58:32;;;;;;;13.25;10.23;;;29.90;96.40;;;;;;4987111;28;20073;-84
2022/07/22 11:01:04;;;;;;;13.77;10.93;;;30.20;95.10;;;;;;4985906;28;20034;-82
2022/07/22 11:03:31;;;;;;;10.85;9.70;;;29.70;95.30;;;;;;4991346;28;20026;-84
2022/07/22 11:06:17;;;;;;;14.02;8.52;;;29.60;96.60;;;;;;4976801;28;20458;-84
2022/07/22 11:08:44;;;;;;;12.93;7.85;;;30.00;95.50;;;;;;4988265;28;20493;-85
2022/07/22 11:11:10;;;;;;;9.38;8.48;;;30.20;96.40;;;;;;4990058;28;20079;-82
2022/07/22 11:13:39;;;;;;;13.75;8.80;;;30.00;94.00;;;;;;4985731;28;20497;-83
2022/07/22 11:16:22;;;;;;;9.88;8.93;;;30.50;95.80;;;;;;4987879;28;20022;-83
2022/07/22 11:19:10;;;;;;;14.88;9.18;;;30.40;94.90;;;;;;4989005;28;20057;-83
2022/07/22 11:21:36;;;;;;;13.23;9.00;;;30.50;94.00;;;;;;4990416;28;20030;-83
2022/07/22 11:24:04;;;;;;;11.82;8.98;;;30.60;94.00;;;;;;4986150;28;20390;-85
2022/07/22 11:26:42;;;;;;;15.88;9.10;;;30.70;94.00;;;;;;4987508;28;20033;-85
2022/07/22 11:29:09;;;;;;;14.00;9.10;;;30.80;93.70;;;;;;4971669;28;20030;-82
2022/07/22 11:31:35;;;;;;;12.85;8.52;;;31.00;94.50;;;;;;4985418;28;22083;-84
2022/07/22 11:34:10;;;;;;;10.18;7.78;;;31.20;94.30;;;;;;4985557;28;20459;-83
2022/07/22 11:36:39;;;;;;;11.52;9.48;;;31.40;93.70;;;;;;4982148;28;20481;-84
2022/07/22 11:39:06;;;;;;;10.35;7.80;;;31.20;92.90;;;;;;4971351;28;20038;-83
2022/07/22 11:41:32;;;;;;;16.98;9.93;;;31.00;93.80;;;;;;4973583;28;20080;-82
2022/07/22 11:43:59;;;;;;;14.48;8.57;;;31.30;92.60;;;;;;4985365;28;20053;-83
2022/07/22 11:46:25;;;;;;;19.45;11.40;;;31.40;93.30;;;;;;4971041;28;20121;-84
2022/07/22 11:48:52;;;;;;;11.57;9.57;;;31.10;92.10;;;;;;4985171;28;20128;-85
2022/07/22 11:51:18;;;;;;;14.55;12.07;;;30.90;93.40;;;;;;4990961;28;20026;-82
2022/07/22 11:53:44;;;;;;;14.05;10.55;;;31.10;93.70;;;;;;4991016;28;20547;-84
2022/07/22 11:56:11;;;;;;;12.13;10.13;;;31.20;94.20;;;;;;4990362;28;20026;-82
2022/07/22 11:58:46;;;;;;;13.32;10.68;;;31.50;93.10;;;;;;4989497;28;20064;-85
2022/07/22 12:01:17;;;;;;;15.45;11.65;;;31.90;93.30;;;;;;4986267;28;20053;-82
2022/07/22 12:03:50;;;;;;;17.05;12.32;;;32.10;93.00;;;;;;4989224;28;20031;-83
2022/07/22 12:06:16;;;;;;;;;;;32.30;92.00;;;;;;4981424;28;20638;-82
2022/07/22 12:08:46;;;;;;;12.45;9.75;;;32.50;91.40;;;;;;4987390;28;19914;-85
2022/07/22 12:11:15;;;;;;;12.18;10.05;;;32.60;91.00;;;;;;4985640;28;20433;-83
2022/07/22 12:13:43;;;;;;;14.73;10.02;;;33.40;91.20;;;;;;4990207;28;20109;-82
2022/07/22 12:16:18;;;;;;;19.25;10.10;;;33.80;87.10;;;;;;4981384;28;20401;-85
2022/07/22 12:18:44;;;;;;;13.07;8.75;;;34.20;87.20;;;;;;4984078;28;20034;-82
2022/07/22 12:21:09;;;;;;;10.10;9.10;;;34.60;87.80;;;;;;4985760;28;20034;-82
2022/07/22 12:23:35;;;;;;;10.88;8.70;;;35.10;83.30;;;;;;4989252;28;20315;-84
2022/07/22 12:26:01;;;;;;;13.65;7.75;;;35.20;82.10;;;;;;4989061;28;20049;-82
2022/07/22 12:28:28;;;;;;;12.15;7.40;;;35.30;79.80;;;;;;4994207;28;22083;-83